createdAt,value
2022-11-16T00:00:12.631Z,27.13
2022-11-16T00:02:42.273Z,26.97
2022-11-16T00:05:10.922Z,27.53
2022-11-16T00:07:39.294Z,27.67
2022-11-16T00:10:08.646Z,27.20
2022-11-16T00:12:36.872Z,24.07
2022-11-16T00:15:06.994Z,27.13
2022-11-16T00:17:35.278Z,25.30
2022-11-16T00:20:05.527Z,24.10
2022-11-16T00:22:33.796Z,23.60
2022-11-16T00:25:01.971Z,25.17
2022-11-16T00:27:30.194Z,27.00
2022-11-16T00:29:58.467Z,27.10
2022-11-16T00:32:26.821Z,27.37
2022-11-16T00:34:55.210Z,26.90
2022-11-16T00:37:25.086Z,27.27
2022-11-16T00:39:53.341Z,28.20
2022-11-16T00:42:21.651Z,27.03
2022-11-16T00:44:49.954Z,28.77
2022-11-16T00:47:18.586Z,27.90
2022-11-16T00:49:46.781Z,28.53
2022-11-16T00:52:15.078Z,27.10
2022-11-16T00:54:44.700Z,28.97
2022-11-16T00:57:13.196Z,32.60
2022-11-16T00:59:41.958Z,30.40
2022-11-16T01:02:10.281Z,30.40
2022-11-16T01:04:41.665Z,31.70
2022-11-16T01:07:11.060Z,30.10
2022-11-16T01:09:39.267Z,29.00
2022-11-16T01:12:09.350Z,29.77
2022-11-16T01:14:40.001Z,29.40
2022-11-16T01:17:08.923Z,30.30
2022-11-16T01:19:37.918Z,31.03
2022-11-16T01:22:06.311Z,28.83
2022-11-16T01:24:34.787Z,28.60
2022-11-16T01:27:03.113Z,28.30
2022-11-16T01:29:35.947Z,28.67
2022-11-16T01:32:05.056Z,26.60
2022-11-16T01:34:34.283Z,27.93
2022-11-16T01:37:08.444Z,27.73
2022-11-16T01:39:40.252Z,27.13
2022-11-16T01:42:14.278Z,27.50
2022-11-16T01:45:08.932Z,27.30
2022-11-16T01:47:37.271Z,21.40
2022-11-16T01:50:11.144Z,27.93
2022-11-16T01:52:45.184Z,26.53
2022-11-16T01:55:14.341Z,28.40
2022-11-16T01:58:08.780Z,26.80
2022-11-16T02:00:41.183Z,29.67
2022-11-16T02:03:37.872Z,26.93
2022-11-16T02:06:23.673Z,27.17
2022-11-16T02:09:24.067Z,28.13
2022-11-16T02:12:15.916Z,28.37
2022-11-16T02:15:04.760Z,28.60
2022-11-16T02:17:44.715Z,30.93
2022-11-16T02:20:47.091Z,30.23
2022-11-16T02:23:45.455Z,34.07
2022-11-16T02:26:31.828Z,31.83
2022-11-16T02:29:14.308Z,29.80
2022-11-16T02:31:51.628Z,29.60
2022-11-16T02:34:22.323Z,30.13
2022-11-16T02:36:54.234Z,32.30
2022-11-16T02:39:27.164Z,31.10
2022-11-16T02:41:57.068Z,30.43
2022-11-16T02:44:32.084Z,27.87
2022-11-16T02:47:05.101Z,24.43
2022-11-16T02:49:37.625Z,24.27
2022-11-16T02:52:06.496Z,22.10
2022-11-16T02:54:34.790Z,20.80
2022-11-16T02:57:31.258Z,21.30
2022-11-16T03:00:02.145Z,20.40
2022-11-16T03:02:44.758Z,19.10
2022-11-16T03:05:17.157Z,18.63
2022-11-16T03:07:57.097Z,17.30
2022-11-16T03:10:43.934Z,18.43
2022-11-16T03:13:14.611Z,18.07
2022-11-16T03:15:45.040Z,16.70
2022-11-16T03:18:17.725Z,16.87
2022-11-16T03:20:46.177Z,17.43
2022-11-16T03:23:16.011Z,19.20
2022-11-16T03:25:51.165Z,18.83
2022-11-16T03:28:27.492Z,17.97
2022-11-16T03:31:02.489Z,16.87
2022-11-16T03:33:37.672Z,15.73
2022-11-16T03:36:12.683Z,16.80
2022-11-16T03:38:43.748Z,16.90
2022-11-16T03:41:13.655Z,18.17
2022-11-16T03:43:44.962Z,17.13
2022-11-16T03:46:17.613Z,17.53
2022-11-16T03:48:47.465Z,18.30
2022-11-16T03:51:24.036Z,16.90
2022-11-16T03:53:52.644Z,18.63
2022-11-16T03:56:21.183Z,19.70
2022-11-16T03:58:49.601Z,19.23
2022-11-16T04:01:20.567Z,18.50
2022-11-16T04:03:50.288Z,19.07
2022-11-16T04:06:37.904Z,19.17
2022-11-16T04:09:24.306Z,20.20
2022-11-16T04:12:10.148Z,21.20
2022-11-16T04:14:57.815Z,17.30
2022-11-16T04:17:47.908Z,19.90
2022-11-16T04:20:34.615Z,17.47
2022-11-16T04:23:24.060Z,18.53
2022-11-16T04:25:53.799Z,18.93
2022-11-16T04:28:26.241Z,18.77
2022-11-16T04:31:20.580Z,18.47
2022-11-16T04:34:12.491Z,17.33
2022-11-16T04:37:03.648Z,14.70
2022-11-16T04:39:33.125Z,16.53
2022-11-16T04:42:15.405Z,17.63
2022-11-16T04:45:03.109Z,17.37
2022-11-16T04:47:52.236Z,16.73
2022-11-16T04:50:24.872Z,17.03
2022-11-16T04:52:53.487Z,17.37
2022-11-16T04:55:22.003Z,15.90
2022-11-16T04:57:51.887Z,15.50
2022-11-16T05:00:21.986Z,16.20
2022-11-16T05:02:51.406Z,15.73
2022-11-16T05:05:20.261Z,17.63
2022-11-16T05:07:51.255Z,17.50
2022-11-16T05:10:25.297Z,16.00
2022-11-16T05:12:54.604Z,11.83
2022-11-16T05:15:24.187Z,14.67
2022-11-16T05:17:54.902Z,15.10
2022-11-16T05:20:43.264Z,16.10
2022-11-16T05:23:27.018Z,16.33
2022-11-16T05:25:57.999Z,15.63
2022-11-16T05:28:26.340Z,15.37
2022-11-16T05:30:54.673Z,14.87
2022-11-16T05:33:25.156Z,15.90
2022-11-16T05:35:54.161Z,16.13
2022-11-16T05:38:24.580Z,15.40
2022-11-16T05:40:56.831Z,16.90
2022-11-16T05:43:27.306Z,16.37
2022-11-16T05:46:25.455Z,12.73
2022-11-16T05:48:56.616Z,12.80
2022-11-16T05:51:25.489Z,13.10
2022-11-16T05:53:56.676Z,14.13
2022-11-16T05:56:25.688Z,14.00
2022-11-16T05:58:55.505Z,15.40
2022-11-16T06:01:24.287Z,13.67
2022-11-16T06:03:53.549Z,13.07
2022-11-16T06:06:23.107Z,13.73
2022-11-16T06:08:52.850Z,12.33
2022-11-16T06:11:34.339Z,12.50
2022-11-16T06:14:05.182Z,23.17
2022-11-16T06:16:35.052Z,12.87
2022-11-16T06:19:06.902Z,13.50
2022-11-16T06:21:35.293Z,12.20
2022-11-16T06:24:09.283Z,9.50
2022-11-16T06:26:39.795Z,9.37
2022-11-16T06:29:08.752Z,9.77
2022-11-16T06:31:37.251Z,10.90
2022-11-16T06:34:06.227Z,9.53
2022-11-16T06:36:35.186Z,8.50
2022-11-16T06:39:03.773Z,8.47
2022-11-16T06:41:41.057Z,8.00
2022-11-16T06:44:12.618Z,6.07
2022-11-16T06:46:49.214Z,5.70
2022-11-16T06:49:17.723Z,5.00
2022-11-16T06:51:47.284Z,5.60
2022-11-16T06:54:15.668Z,5.27
2022-11-16T06:56:44.162Z,5.90
2022-11-16T06:59:14.087Z,4.97
2022-11-16T07:01:44.598Z,4.83
2022-11-16T07:04:15.441Z,5.60
2022-11-16T07:06:51.182Z,6.00
2022-11-16T07:09:20.268Z,5.23
2022-11-16T07:11:49.391Z,4.67
2022-11-16T07:14:20.328Z,5.20
2022-11-16T07:16:48.780Z,5.30
2022-11-16T07:19:17.139Z,5.30
2022-11-16T07:21:45.597Z,5.07
2022-11-16T07:24:18.739Z,5.17
2022-11-16T07:26:48.274Z,4.30
2022-11-16T07:29:22.711Z,4.03
2022-11-16T07:32:12.071Z,4.53
2022-11-16T07:34:59.584Z,4.00
2022-11-16T07:37:29.533Z,3.47
2022-11-16T07:39:57.811Z,3.93
2022-11-16T07:42:26.707Z,3.20
2022-11-16T07:45:10.833Z,3.33
2022-11-16T07:47:45.215Z,3.80
2022-11-16T07:50:22.617Z,3.50
2022-11-16T07:52:52.039Z,3.30
2022-11-16T07:55:24.271Z,3.40
2022-11-16T07:57:54.694Z,3.30
2022-11-16T08:00:24.864Z,4.60
2022-11-16T08:03:01.286Z,3.90
2022-11-16T08:05:30.364Z,3.60
2022-11-16T08:07:58.723Z,3.50
2022-11-16T08:10:28.089Z,3.20
2022-11-16T08:12:57.025Z,2.87
2022-11-16T08:15:28.270Z,3.43
2022-11-16T08:17:58.389Z,3.90
2022-11-16T08:20:28.836Z,3.50
2022-11-16T08:23:01.921Z,3.17
2022-11-16T08:25:34.575Z,3.20
2022-11-16T08:28:03.715Z,3.10
2022-11-16T08:30:34.667Z,2.80
2022-11-16T08:33:03.203Z,2.60
2022-11-16T08:35:31.482Z,2.43
2022-11-16T08:37:59.985Z,2.67
2022-11-16T08:40:29.560Z,2.70
2022-11-16T08:42:58.589Z,2.50
2022-11-16T08:45:28.124Z,2.57
2022-11-16T08:48:03.821Z,2.23
2022-11-16T08:50:55.418Z,2.13
2022-11-16T08:53:23.200Z,2.10
2022-11-16T08:55:51.856Z,2.17
2022-11-16T08:58:20.555Z,2.20
2022-11-16T09:00:48.979Z,2.30
2022-11-16T09:03:18.714Z,2.50
2022-11-16T09:05:47.229Z,2.40
2022-11-16T09:08:15.697Z,2.33
2022-11-16T09:10:44.071Z,2.20
2022-11-16T09:13:12.559Z,2.53
2022-11-16T09:15:40.834Z,2.60
2022-11-16T09:18:09.221Z,2.30
2022-11-16T09:20:39.061Z,1.90
2022-11-16T09:23:07.387Z,2.03
2022-11-16T09:25:35.785Z,2.67
2022-11-16T09:28:04.286Z,2.33
2022-11-16T09:30:32.669Z,2.07
2022-11-16T09:33:01.124Z,3.20
2022-11-16T09:35:29.473Z,4.97
2022-11-16T09:37:59.177Z,6.03
2022-11-16T09:40:31.653Z,2.10
2022-11-16T09:43:08.120Z,2.10
2022-11-16T09:45:45.200Z,2.00
2022-11-16T09:48:19.497Z,1.73
2022-11-16T09:50:51.019Z,1.80
2022-11-16T09:53:35.129Z,1.87
2022-11-16T09:56:07.700Z,4.60
2022-11-16T09:58:41.879Z,1.70
2022-11-16T10:01:22.537Z,1.80
2022-11-16T10:03:54.827Z,2.03
2022-11-16T10:06:28.859Z,3.00
2022-11-16T10:08:58.844Z,1.90
2022-11-16T10:11:58.544Z,1.80
2022-11-16T10:15:15.268Z,1.77
2022-11-16T10:18:02.993Z,2.00
2022-11-16T10:20:58.190Z,1.70
2022-11-16T10:23:41.558Z,1.60
2022-11-16T10:26:26.332Z,1.50
2022-11-16T10:29:09.678Z,1.63
2022-11-16T10:31:52.291Z,1.90
2022-11-16T10:34:25.533Z,1.60
2022-11-16T10:36:59.155Z,1.73
2022-11-16T10:39:28.570Z,1.50
2022-11-16T10:42:07.459Z,1.50
2022-11-16T10:44:41.426Z,1.52
2022-11-16T10:47:19.163Z,1.40
2022-11-16T10:49:56.702Z,1.40
2022-11-16T10:52:26.390Z,1.38
2022-11-16T10:54:55.034Z,1.50
2022-11-16T10:57:26.577Z,1.38
2022-11-16T10:59:56.462Z,1.60
2022-11-16T11:02:34.761Z,1.23
2022-11-16T11:05:16.687Z,1.60
2022-11-16T11:07:54.063Z,1.60
2022-11-16T11:10:29.769Z,1.42
2022-11-16T11:13:23.113Z,1.40
2022-11-16T11:15:53.266Z,1.20
2022-11-16T11:18:29.735Z,1.35
2022-11-16T11:21:13.880Z,1.38
2022-11-16T11:23:48.033Z,1.17
2022-11-16T11:26:36.676Z,1.40
2022-11-16T11:29:18.154Z,1.35
2022-11-16T11:31:51.066Z,1.50
2022-11-16T11:34:23.278Z,1.45
2022-11-16T11:36:56.312Z,1.30
2022-11-16T11:39:31.199Z,1.60
2022-11-16T11:42:10.809Z,1.40
2022-11-16T11:44:50.487Z,1.58
2022-11-16T11:50:38.019Z,2.70
2022-11-16T11:53:12.789Z,1.60
2022-11-16T11:55:42.454Z,1.30
2022-11-16T11:58:19.460Z,1.45
2022-11-16T12:00:58.975Z,1.30
2022-11-16T12:04:00.106Z,1.10
2022-11-16T12:06:33.800Z,1.20
2022-11-16T12:09:24.784Z,1.27
2022-11-16T12:12:06.625Z,1.42
2022-11-16T12:14:54.399Z,1.50
2022-11-16T12:17:34.428Z,1.15
2022-11-16T12:20:20.182Z,1.13
2022-11-16T12:23:15.576Z,1.30
2022-11-16T12:25:49.518Z,1.40
2022-11-16T12:28:29.092Z,1.27
2022-11-16T12:31:18.536Z,1.40
2022-11-16T12:33:55.984Z,1.20
2022-11-16T12:36:35.184Z,1.15
2022-11-16T12:39:20.549Z,1.50
2022-11-16T12:42:15.817Z,1.60
2022-11-16T12:45:18.674Z,2.38
2022-11-16T12:48:11.737Z,1.88
2022-11-16T12:50:52.677Z,1.88
2022-11-16T12:53:34.995Z,1.80
2022-11-16T12:56:12.685Z,1.70
2022-11-16T12:59:02.684Z,1.40
2022-11-16T13:01:37.452Z,1.70
2022-11-16T13:04:12.592Z,1.50
2022-11-16T13:06:52.722Z,1.70
2022-11-16T13:09:25.295Z,1.80
2022-11-16T13:11:57.645Z,1.42
2022-11-16T13:14:33.048Z,1.60
2022-11-16T13:17:03.379Z,1.50
2022-11-16T13:19:32.680Z,1.40
2022-11-16T13:22:08.608Z,1.50
2022-11-16T13:24:47.925Z,1.60
2022-11-16T13:27:33.090Z,1.48
2022-11-16T13:30:08.001Z,1.48
2022-11-16T13:32:54.095Z,1.40
2022-11-16T13:35:23.171Z,1.70
2022-11-16T13:37:53.169Z,1.90
2022-11-16T13:40:25.134Z,1.60
2022-11-16T13:43:04.811Z,1.90
2022-11-16T13:45:38.437Z,1.67
2022-11-16T13:48:18.437Z,1.63
2022-11-16T13:50:53.270Z,1.70
2022-11-16T13:54:25.072Z,1.60
2022-11-16T13:56:28.325Z,1.30
2022-11-16T13:58:58.561Z,1.33
2022-11-16T14:01:27.889Z,1.50
2022-11-16T14:04:43.166Z,1.67
2022-11-16T14:07:36.938Z,1.77
2022-11-16T14:10:08.132Z,2.00
2022-11-16T14:12:58.239Z,3.25
2022-11-16T14:15:33.073Z,2.40
2022-11-16T14:18:23.981Z,1.70
2022-11-16T14:21:10.151Z,1.50
2022-11-16T14:24:02.060Z,1.75
2022-11-16T14:26:43.572Z,1.60
2022-11-16T14:29:29.064Z,1.60
2022-11-16T14:31:59.319Z,1.50
2022-11-16T14:34:32.154Z,1.40
2022-11-16T14:37:01.410Z,1.50
2022-11-16T14:39:38.629Z,1.40
2022-11-16T14:42:20.449Z,1.40
2022-11-16T14:44:50.558Z,1.98
2022-11-16T14:47:25.209Z,1.40
2022-11-16T14:49:54.233Z,1.48
2022-11-16T14:52:32.876Z,1.60
2022-11-16T14:55:03.920Z,1.65
2022-11-16T14:57:33.710Z,1.63
2022-11-16T15:00:19.778Z,1.60
2022-11-16T15:02:52.469Z,3.05
2022-11-16T15:05:24.490Z,1.80
2022-11-16T15:07:54.258Z,1.60
2022-11-16T15:10:25.114Z,1.60
2022-11-16T15:12:56.770Z,1.80
2022-11-16T15:15:27.936Z,1.80
2022-11-16T15:18:08.496Z,1.67
2022-11-16T15:20:39.300Z,1.70
2022-11-16T15:23:15.299Z,2.17
2022-11-16T15:25:45.513Z,1.60
2022-11-16T15:28:19.116Z,2.00
2022-11-16T15:30:50.487Z,1.90
2022-11-16T15:33:23.200Z,1.90
2022-11-16T15:35:51.479Z,2.13
2022-11-16T15:38:22.630Z,2.37
2022-11-16T15:40:53.981Z,2.53
2022-11-16T15:43:27.596Z,2.07
2022-11-16T15:45:57.277Z,2.80
2022-11-16T15:48:27.825Z,2.30
2022-11-16T15:51:06.417Z,2.03
2022-11-16T15:53:37.630Z,1.87
2022-11-16T15:56:08.980Z,2.20
2022-11-16T15:58:42.654Z,2.17
2022-11-16T16:01:12.843Z,2.10
2022-11-16T16:03:51.087Z,2.10
2022-11-16T16:06:49.381Z,2.37
2022-11-16T16:09:27.004Z,2.73
2022-11-16T16:11:56.960Z,2.53
2022-11-16T16:14:31.222Z,2.90
2022-11-16T16:17:00.832Z,3.07
2022-11-16T16:19:37.821Z,2.73
2022-11-16T16:22:13.489Z,3.40
2022-11-16T16:24:44.368Z,2.57
2022-11-16T16:27:15.716Z,2.57
2022-11-16T16:29:46.226Z,2.90
2022-11-16T16:32:23.675Z,2.70
2022-11-16T16:34:52.177Z,2.60
2022-11-16T16:37:20.596Z,7.27
2022-11-16T16:39:49.240Z,6.20
2022-11-16T16:42:18.913Z,3.70
2022-11-16T16:44:49.124Z,3.90
2022-11-16T16:47:20.674Z,3.13
2022-11-16T16:49:49.302Z,4.17
2022-11-16T16:52:18.421Z,4.07
2022-11-16T16:54:47.488Z,3.53
2022-11-16T16:57:16.746Z,4.90
2022-11-16T16:59:48.135Z,3.30
2022-11-16T17:02:18.347Z,3.30
2022-11-16T17:04:48.410Z,3.80
2022-11-16T17:07:17.148Z,3.20
2022-11-16T17:09:45.795Z,2.80
2022-11-16T17:12:14.271Z,2.93
2022-11-16T17:14:51.284Z,2.90
2022-11-16T17:17:21.798Z,3.10
2022-11-16T17:19:52.928Z,3.73
2022-11-16T17:22:21.935Z,3.43
2022-11-16T17:24:50.365Z,3.00
2022-11-16T17:27:18.787Z,2.80
2022-11-16T17:29:46.999Z,2.77
2022-11-16T17:32:15.686Z,2.93
2022-11-16T17:34:45.457Z,3.20
2022-11-16T17:37:14.709Z,4.60
2022-11-16T17:39:43.945Z,4.73
2022-11-16T17:42:12.487Z,3.40
2022-11-16T17:44:40.889Z,3.60
2022-11-16T17:47:09.532Z,3.67
2022-11-16T17:49:38.000Z,3.60
2022-11-16T17:52:07.655Z,3.63
2022-11-16T17:54:36.125Z,4.30
2022-11-16T17:57:05.799Z,4.07
2022-11-16T17:59:34.336Z,6.50
2022-11-16T18:02:03.165Z,5.00
2022-11-16T18:04:31.534Z,5.17
2022-11-16T18:07:01.087Z,4.30
2022-11-16T18:09:33.668Z,3.83
2022-11-16T18:12:02.109Z,3.53
2022-11-16T18:14:30.317Z,3.20
2022-11-16T18:16:58.785Z,2.93
2022-11-16T18:19:27.293Z,3.20
2022-11-16T18:21:55.849Z,3.60
2022-11-16T18:24:24.511Z,3.63
2022-11-16T18:26:54.385Z,3.30
2022-11-16T18:29:22.819Z,3.57
2022-11-16T18:31:51.236Z,3.73
2022-11-16T18:34:20.290Z,4.70
2022-11-16T18:36:50.785Z,5.33
2022-11-16T18:39:19.323Z,4.00
2022-11-16T18:41:54.772Z,4.17
2022-11-16T18:44:25.330Z,3.80
2022-11-16T18:46:54.641Z,4.43
2022-11-16T18:49:24.205Z,4.70
2022-11-16T18:51:52.634Z,6.03
2022-11-16T18:54:21.090Z,6.43
2022-11-16T18:56:49.768Z,7.00
2022-11-16T18:59:18.169Z,6.60
2022-11-16T19:01:48.099Z,6.57
2022-11-16T19:04:16.749Z,3.80
2022-11-16T19:06:45.468Z,5.90
2022-11-16T19:09:13.998Z,5.00
2022-11-16T19:11:42.405Z,4.10
2022-11-16T19:14:11.047Z,8.93
2022-11-16T19:16:45.199Z,7.37
2022-11-16T19:19:18.849Z,14.90
2022-11-16T19:21:47.536Z,9.00
2022-11-16T19:24:15.995Z,7.20
2022-11-16T19:26:44.337Z,9.70
2022-11-16T19:29:12.607Z,4.40
2022-11-16T19:31:42.682Z,4.40
2022-11-16T19:34:13.540Z,4.63
2022-11-16T19:36:43.583Z,16.33
2022-11-16T19:39:12.166Z,7.87
2022-11-16T19:41:40.630Z,5.00
2022-11-16T19:44:09.151Z,4.90
2022-11-16T19:46:37.548Z,3.97
2022-11-16T19:49:05.776Z,4.47
2022-11-16T19:51:35.240Z,4.80
2022-11-16T19:54:05.381Z,5.90
2022-11-16T19:56:34.971Z,5.07
2022-11-16T19:59:03.600Z,4.03
2022-11-16T20:01:32.115Z,4.50
2022-11-16T20:04:02.348Z,4.30
2022-11-16T20:06:31.871Z,5.63
2022-11-16T20:09:03.939Z,10.80
2022-11-16T20:11:34.671Z,9.70
2022-11-16T20:14:04.662Z,12.43
2022-11-16T20:16:38.669Z,9.13
2022-11-16T20:19:08.157Z,6.47
2022-11-16T20:21:38.636Z,6.37
2022-11-16T20:24:10.632Z,7.37
2022-11-16T20:26:43.023Z,6.53
2022-11-16T20:29:12.366Z,6.80
2022-11-16T20:31:42.852Z,6.83
2022-11-16T20:34:14.058Z,4.27
2022-11-16T20:36:44.041Z,4.33
2022-11-16T20:39:15.052Z,13.93
2022-11-16T20:41:45.112Z,6.60
2022-11-16T20:44:17.972Z,6.00
2022-11-16T20:46:47.565Z,5.53
2022-11-16T20:49:16.237Z,3.90
2022-11-16T20:51:46.848Z,5.20
2022-11-16T20:54:15.352Z,5.37
2022-11-16T20:56:48.165Z,5.77
2022-11-16T20:59:16.696Z,6.50
2022-11-16T21:01:48.195Z,6.80
2022-11-16T21:04:17.064Z,7.07
2022-11-16T21:06:45.247Z,6.90
2022-11-16T21:09:15.533Z,5.50
2022-11-16T21:12:02.465Z,5.23
2022-11-16T21:14:30.983Z,5.37
2022-11-16T21:16:59.336Z,5.10
2022-11-16T21:19:27.508Z,4.03
2022-11-16T21:21:56.006Z,3.70
2022-11-16T21:24:27.610Z,3.53
2022-11-16T21:26:57.577Z,3.47
2022-11-16T21:29:27.300Z,3.50
2022-11-16T21:31:55.538Z,3.93
2022-11-16T21:34:27.797Z,3.43
2022-11-16T21:36:56.162Z,3.90
2022-11-16T21:39:24.380Z,4.13
2022-11-16T21:41:52.616Z,4.00
2022-11-16T21:44:22.387Z,3.93
2022-11-16T21:46:50.746Z,3.60
2022-11-16T21:49:18.980Z,3.50
2022-11-16T21:51:47.335Z,3.63
2022-11-16T21:54:15.675Z,3.03
2022-11-16T21:56:46.790Z,3.10
2022-11-16T21:59:15.338Z,3.80
2022-11-16T22:02:03.218Z,5.47
2022-11-16T22:04:48.969Z,4.13
2022-11-16T22:07:37.691Z,4.93
2022-11-16T22:10:08.641Z,4.93
2022-11-16T22:12:38.175Z,5.13
2022-11-16T22:15:08.126Z,4.53
2022-11-16T22:17:37.871Z,3.60
2022-11-16T22:20:08.378Z,4.53
2022-11-16T22:22:37.810Z,4.60
2022-11-16T22:25:07.256Z,4.40
2022-11-16T22:27:46.979Z,4.23
2022-11-16T22:30:24.021Z,3.77
2022-11-16T22:32:54.753Z,3.80
2022-11-16T22:35:23.226Z,5.87
2022-11-16T22:37:51.632Z,5.20
2022-11-16T22:40:19.947Z,7.73
2022-11-16T22:42:48.501Z,5.40
2022-11-16T22:45:18.587Z,8.60
2022-11-16T22:47:49.702Z,9.97
2022-11-16T22:50:24.149Z,11.60
2022-11-16T22:52:52.750Z,9.90
2022-11-16T22:55:21.461Z,14.00
2022-11-16T22:57:49.670Z,9.53
2022-11-16T23:00:19.147Z,4.70
2022-11-16T23:02:47.524Z,4.60
2022-11-16T23:05:17.188Z,6.90
2022-11-16T23:07:46.975Z,5.50
2022-11-16T23:10:15.715Z,4.90
2022-11-16T23:13:01.388Z,5.57
2022-11-16T23:15:58.723Z,6.00
2022-11-16T23:18:27.053Z,5.10
2022-11-16T23:21:13.554Z,5.33
2022-11-16T23:24:00.541Z,4.87
2022-11-16T23:26:46.380Z,4.30
2022-11-16T23:29:14.677Z,4.03
2022-11-16T23:31:42.987Z,7.03
2022-11-16T23:34:11.326Z,3.90
2022-11-16T23:36:39.993Z,4.90
2022-11-16T23:39:09.691Z,3.43
2022-11-16T23:41:55.334Z,3.50
2022-11-16T23:44:23.938Z,3.27
2022-11-16T23:46:52.150Z,3.53
2022-11-16T23:49:20.364Z,3.07
2022-11-16T23:51:48.579Z,3.30
2022-11-16T23:54:18.518Z,3.10
2022-11-16T23:56:46.949Z,3.10
2022-11-16T23:59:15.354Z,3.40
